Time;durP1;ratioP1;P1;durP2;ratioP2;P2;SDS_P1;SDS_P2;PMS_P1;PMS_P2;Temp;Humidity;BMP_temperature;BMP_pressure;BME280_temperature;BME280_humidity;BME280_pressure;Samples;Min_cycle;Max_cycle;Signal;HPM_P1;HPM_P2
2024/01/28 00:02:19;;;;;;;2.08;1.90;;;2.30;1.00;;;1.93;100.00;102978.50;5041706;28;20710;-69
2024/01/28 00:04:51;;;;;;;0.90;0.75;;;2.30;1.00;;;1.90;100.00;102978.69;5040494;28;20189;-68
2024/01/28 00:07:22;;;;;;;1.00;0.80;;;2.30;1.00;;;1.84;100.00;102981.72;5044920;28;20244;-71
2024/01/28 00:09:52;;;;;;;1.25;1.15;;;2.30;1.00;;;1.88;100.00;102974.41;5047573;28;20258;-71
2024/01/28 00:12:25;;;;;;;1.00;0.80;;;2.20;1.00;;;2.10;100.00;102985.44;5038999;28;20208;-69
2024/01/28 00:14:56;;;;;;;1.27;0.98;;;2.30;99.90;;;1.89;100.00;102976.97;5037518;28;20663;-70
2024/01/28 00:17:26;;;;;;;1.20;0.98;;;2.30;1.00;;;1.92;100.00;102975.94;5044429;28;20303;-69
2024/01/28 00:19:55;;;;;;;2.55;2.25;;;2.30;1.00;;;2.02;100.00;102969.91;5038589;28;20201;-70
2024/01/28 00:22:24;;;;;;;7.63;0.98;;;2.30;65.00;;;2.04;100.00;102965.31;5037950;28;20284;-66
2024/01/28 00:25:04;;;;;;;1.17;1.02;;;2.30;99.90;;;2.13;100.00;102975.41;5038338;28;20193;-70
2024/01/28 00:27:35;;;;;;;1.20;0.70;;;2.30;99.90;;;1.94;100.00;102968.66;5038482;28;20244;-69
2024/01/28 00:30:09;;;;;;;2.28;1.55;;;2.30;1.00;;;1.91;100.00;102968.84;5038050;28;20197;-71
2024/01/28 00:32:46;;;;;;;2.45;1.52;;;2.30;1.00;;;1.74;100.00;102978.75;5037022;28;20285;-69
2024/01/28 00:35:18;;;;;;;1.80;1.20;;;2.20;1.00;;;1.70;100.00;102976.38;5044238;28;20189;-70
2024/01/28 00:37:54;;;;;;;1.00;0.90;;;2.10;1.00;;;1.70;100.00;102979.03;5044862;28;20210;-69
2024/01/28 00:40:24;;;;;;;10.75;2.58;;;2.10;23.60;;;1.60;100.00;102970.75;5031297;28;20239;-69
2024/01/28 00:42:55;;;;;;;1.00;0.70;;;2.00;49.40;;;1.61;100.00;102974.28;5037298;28;20197;-69
2024/01/28 00:45:35;;;;;;;14.95;2.78;;;2.00;99.90;;;1.58;100.00;102974.47;5051571;28;20189;-69
2024/01/28 00:48:09;;;;;;;1.65;1.50;;;2.00;99.90;;;1.54;100.00;102976.47;5037047;28;20283;-68
2024/01/28 00:50:38;;;;;;;0.93;0.75;;;1.90;99.90;;;1.47;100.00;102975.13;5041559;28;20605;-69
2024/01/28 00:53:07;;;;;;;1.98;1.88;;;1.90;99.90;;;1.38;100.00;102981.03;5038401;28;20208;-67
2024/01/28 00:55:37;;;;;;;10.43;1.95;;;1.80;1.00;;;1.29;100.00;102979.75;5036618;28;20202;-69
2024/01/28 00:58:14;;;;;;;3.00;1.60;;;1.80;1.00;;;1.26;100.00;102985.25;5035947;28;20233;-69
2024/01/28 01:00:46;;;;;;;1.80;1.65;;;1.70;1.00;;;1.31;100.00;102975.19;5032972;28;20189;-67
2024/01/28 01:03:24;;;;;;;1.33;1.23;;;1.70;99.90;;;1.33;100.00;102980.44;5039053;28;20185;-68
2024/01/28 01:06:07;;;;;;;3.17;1.75;;;1.70;1.00;;;1.35;100.00;102970.53;5037739;28;20185;-67
2024/01/28 01:08:40;;;;;;;1.88;1.45;;;1.70;99.90;;;1.35;100.00;102975.88;5035871;28;20401;-69
2024/01/28 01:11:19;;;;;;;5.88;1.67;;;1.70;1.00;;;1.30;100.00;102977.97;5050804;28;20292;-70
2024/01/28 01:14:04;;;;;;;2.90;2.65;;;1.70;1.00;;;1.38;100.00;102978.34;5037977;28;20591;-68
2024/01/28 01:16:34;;;;;;;2.35;1.30;;;1.70;99.90;;;1.33;100.00;102982.25;5038632;28;20667;-69
2024/01/28 01:21:51;;;;;;;1.05;0.95;;;1.70;1.00;;;1.23;100.00;102988.13;5029830;28;20208;-67
2024/01/28 01:24:20;;;;;;;4.78;2.83;;;1.70;1.00;;;1.23;100.00;102981.94;5043529;28;20243;-70
2024/01/28 01:26:52;;;;;;;2.70;2.50;;;1.70;99.90;;;1.23;100.00;102982.78;5034116;28;20214;-69
2024/01/28 01:29:23;;;;;;;4.63;1.33;;;1.70;99.90;;;1.23;100.00;102982.78;5031881;28;20218;-69
2024/01/28 01:32:10;;;;;;;1.98;1.77;;;1.70;1.00;;;1.38;100.00;102983.69;5038246;28;20264;-69
2024/01/28 01:34:41;;;;;;;3.85;0.90;;;1.70;17.30;;;1.17;100.00;102980.47;5037435;28;20247;-68
2024/01/28 01:37:12;;;;;;;4.75;1.60;;;1.60;21.70;;;1.12;100.00;102979.88;5037130;28;20737;-68
2024/01/28 01:39:44;;;;;;;1.55;0.90;;;1.60;91.30;;;1.15;100.00;102978.88;5036810;28;20232;-69
2024/01/28 01:42:14;;;;;;;2.38;1.20;;;1.50;99.90;;;1.18;100.00;102979.53;5032907;28;20200;-68
2024/01/28 01:44:46;;;;;;;1.92;1.20;;;1.60;99.90;;;1.20;100.00;102985.66;5037723;28;20284;-67
2024/01/28 01:47:18;;;;;;;1.80;1.70;;;1.60;99.90;;;1.12;100.00;102987.88;5036402;28;20637;-68
2024/01/28 01:49:50;;;;;;;1.00;0.88;;;1.50;99.90;;;1.02;100.00;102991.19;5036135;28;20197;-68
2024/01/28 01:52:21;;;;;;;6.07;2.65;;;1.50;99.90;;;0.93;100.00;102983.72;5034536;28;20212;-69
2024/01/28 01:54:54;;;;;;;3.03;2.05;;;1.40;99.90;;;0.94;100.00;102980.97;5040484;28;20285;-69
2024/01/28 01:57:25;;;;;;;1.92;1.77;;;1.40;99.90;;;0.91;100.00;102986.50;5036038;28;20228;-69
2024/01/28 01:59:55;;;;;;;1.00;0.90;;;1.40;99.90;;;0.91;100.00;102986.50;5035565;28;20296;-70
2024/01/28 02:02:38;;;;;;;2.60;2.50;;;1.40;99.90;;;0.92;100.00;102982.03;5036857;28;20206;-68
2024/01/28 02:05:07;;;;;;;2.20;1.38;;;1.40;99.90;;;0.83;100.00;102980.72;5038602;28;20213;-69
2024/01/28 02:07:36;;;;;;;1.90;1.80;;;1.30;99.90;;;0.91;100.00;102982.97;5036019;28;20217;-67
2024/01/28 02:10:06;;;;;;;1.55;0.90;;;1.30;99.90;;;0.98;100.00;102979.84;5034902;28;20204;-69
2024/01/28 02:12:35;;;;;;;1.25;1.15;;;1.40;99.90;;;0.92;100.00;102979.38;5035260;28;20258;-69
2024/01/28 02:15:06;;;;;;;2.65;2.45;;;1.40;99.90;;;0.96;100.00;102981.75;5043151;28;20189;-68
2024/01/28 02:17:37;;;;;;;2.17;2.00;;;1.40;99.90;;;0.95;100.00;102977.38;5035533;28;20225;-70
2024/01/28 02:20:09;;;;;;;1.95;1.10;;;1.40;99.90;;;0.83;100.00;102978.94;5035797;28;20693;-65
2024/01/28 02:22:38;;;;;;;2.35;2.03;;;1.30;99.90;;;0.84;100.00;102970.00;5036394;28;20190;-68
2024/01/28 02:25:09;;;;;;;1.98;1.33;;;1.30;99.90;;;0.74;100.00;102968.81;5038715;28;20246;-68
2024/01/28 02:27:46;;;;;;;1.67;1.45;;;1.20;99.90;;;0.71;100.00;102970.78;5039778;28;20222;-69
2024/01/28 02:30:16;;;;;;;9.57;3.35;;;1.20;99.90;;;0.76;100.00;102966.06;5029704;28;20198;-69
2024/01/28 02:32:49;;;;;;;1.60;1.40;;;1.20;99.90;;;0.68;100.00;102968.28;5034875;28;20288;-68
2024/01/28 02:35:19;;;;;;;3.05;1.13;;;1.20;99.90;;;0.62;100.00;102972.19;5035957;28;20197;-68
2024/01/28 02:37:48;;;;;;;27.85;2.90;;;1.10;99.90;;;0.61;100.00;102972.25;5021248;28;20584;-67
2024/01/28 02:40:19;;;;;;;3.15;2.50;;;1.10;99.90;;;0.58;100.00;102961.78;5022626;28;20197;-67
2024/01/28 02:42:48;;;;;;;1.05;0.95;;;1.10;99.90;;;0.63;100.00;102967.72;5043407;28;20663;-67
2024/01/28 02:45:18;;;;;;;1.20;1.10;;;1.00;99.90;;;0.64;100.00;102961.41;5034910;28;20189;-67
2024/01/28 02:47:47;;;;;;;2.50;1.52;;;1.10;99.90;;;0.62;100.00;102964.19;5034690;28;20213;-66
2024/01/28 02:50:16;;;;;;;2.28;1.33;;;1.10;99.90;;;0.67;100.00;102955.94;5031598;28;20195;-68
2024/01/28 02:52:45;;;;;;;1.05;0.95;;;1.10;99.90;;;0.59;100.00;102963.47;5036550;28;20583;-68
2024/01/28 02:55:14;;;;;;;1.40;1.10;;;1.10;99.90;;;0.52;100.00;102962.13;5036200;28;20189;-68
2024/01/28 02:57:44;;;;;;;3.20;2.08;;;1.00;99.90;;;0.56;100.00;102964.53;5035015;28;20263;-68
2024/01/28 03:00:15;;;;;;;1.33;1.23;;;1.00;99.90;;;0.52;100.00;102963.00;5029093;28;20185;-66
2024/01/28 03:02:44;;;;;;;1.02;0.90;;;1.00;99.90;;;0.53;100.00;102959.38;5035713;28;20190;-68
2024/01/28 03:05:13;;;;;;;3.53;2.03;;;1.00;99.90;;;0.48;100.00;102957.94;5036371;28;20194;-67
2024/01/28 03:07:42;;;;;;;18.08;1.20;;;0.90;99.90;;;0.66;100.00;102964.88;5033531;28;20224;-68
2024/01/28 03:10:11;;;;;;;6.35;2.75;;;1.00;99.90;;;0.68;100.00;102963.81;5035063;28;20193;-68
2024/01/28 03:12:39;;;;;;;7.07;2.65;;;1.10;99.90;;;0.59;100.00;102958.16;5031321;28;20216;-70
2024/01/28 03:15:10;;;;;;;1.20;1.10;;;1.10;99.90;;;0.64;100.00;102961.41;5037624;28;20196;-68
2024/01/28 03:17:39;;;;;;;2.85;2.00;;;1.00;99.90;;;0.52;100.00;102963.00;5035231;28;20239;-68
2024/01/28 03:20:10;;;;;;;1.40;1.25;;;1.00;99.90;;;0.58;100.00;102953.78;5034799;28;20225;-69
2024/01/28 03:22:39;;;;;;;1.73;1.63;;;1.00;99.90;;;0.46;100.00;102958.00;5029972;28;20269;-67
2024/01/28 03:25:09;;;;;;;2.65;1.60;;;0.90;99.90;;;0.45;100.00;102961.59;5034877;28;20602;-68
2024/01/28 03:27:37;;;;;;;2.25;1.40;;;0.90;99.90;;;0.76;100.00;102955.41;5034228;28;20224;-68
2024/01/28 03:30:10;;;;;;;1.58;1.33;;;1.00;99.90;;;0.59;100.00;102958.16;5035295;28;20259;-67
2024/01/28 03:32:38;;;;;;;5.95;1.85;;;1.00;99.90;;;0.45;100.00;102956.28;5034760;28;20193;-68
2024/01/28 03:35:11;;;;;;;1.33;0.90;;;0.90;99.90;;;0.34;100.00;102956.00;5033316;28;20592;-68
2024/01/28 03:37:40;;;;;;;1.02;0.80;;;0.90;99.90;;;0.37;100.00;102969.19;5028699;28;20224;-68
2024/01/28 03:40:10;;;;;;;2.35;2.13;;;0.80;99.90;;;0.25;100.00;102960.06;5035262;28;20239;-69
2024/01/28 03:42:39;;;;;;;0.98;0.85;;;0.80;99.90;;;0.25;100.00;102949.41;5029753;28;20232;-69
2024/01/28 03:45:11;;;;;;;2.35;1.67;;;0.80;99.90;;;0.34;100.00;102948.88;5034782;28;20186;-68
2024/01/28 03:47:39;;;;;;;2.35;1.45;;;0.70;99.90;;;0.65;100.00;102952.47;5034790;28;20356;-68
2024/01/28 03:50:12;;;;;;;1.23;1.13;;;0.90;99.90;;;0.48;100.00;102947.28;5034876;28;20680;-69
2024/01/28 03:52:41;;;;;;;1.52;1.00;;;0.90;99.90;;;0.61;100.00;102950.94;5034505;28;20213;-68
2024/01/28 03:55:10;;;;;;;2.20;2.10;;;1.00;99.90;;;0.46;100.00;102951.81;5034022;28;20276;-68
2024/01/28 03:57:40;;;;;;;1.27;1.10;;;0.90;99.90;;;0.30;100.00;102952.66;5034847;28;20233;-68
2024/01/28 04:00:13;;;;;;;4.47;2.05;;;0.80;99.90;;;0.32;100.00;102947.28;5038411;28;20260;-68
2024/01/28 04:02:42;;;;;;;4.80;3.72;;;0.80;99.90;;;0.29;100.00;102945.63;5040004;28;20667;-68
2024/01/28 04:05:11;;;;;;;5.68;2.20;;;0.70;99.90;;;0.23;100.00;102940.66;5033792;28;20667;-68
2024/01/28 04:07:40;;;;;;;1.00;0.80;;;0.70;99.90;;;0.20;100.00;102940.81;5035339;28;20300;-69
2024/01/28 04:10:09;;;;;;;1.50;1.25;;;0.70;99.90;;;0.25;100.00;102944.06;5041582;28;20709;-69
2024/01/28 04:12:38;;;;;;;5.78;1.48;;;0.70;99.90;;;0.20;100.00;102945.28;5034729;28;20285;-69
2024/01/28 04:15:08;;;;;;;1.92;1.77;;;0.70;99.90;;;0.21;100.00;102949.66;5034219;28;20656;-67
2024/01/28 04:17:38;;;;;;;15.82;2.30;;;0.70;99.90;;;0.21;100.00;102953.19;5036752;28;20217;-69
2024/01/28 04:20:09;;;;;;;1.42;0.70;;;0.70;99.90;;;0.20;100.00;102945.28;5037301;28;20181;-67
2024/01/28 04:22:38;;;;;;;3.58;1.42;;;0.70;99.90;;;0.25;100.00;102944.06;5030067;28;20194;-69
2024/01/28 04:25:07;;;;;;;1.75;1.65;;;0.70;99.90;;;0.24;100.00;102947.69;5037655;28;20192;-67
2024/01/28 04:27:36;;;;;;;4.15;1.73;;;0.70;99.90;;;0.22;100.00;102938.06;5037776;28;20713;-69
2024/01/28 04:30:08;;;;;;;2.92;1.35;;;0.70;99.90;;;0.21;100.00;102939.88;5047390;28;20197;-69
2024/01/28 04:32:39;;;;;;;1.48;1.02;;;0.70;99.90;;;0.21;100.00;102953.19;5036619;28;20197;-69
2024/01/28 04:35:12;;;;;;;1.00;0.80;;;0.70;99.90;;;0.22;100.00;102951.38;5035919;28;20763;-68
2024/01/28 04:37:42;;;;;;;2.25;1.38;;;0.70;99.90;;;0.53;100.00;102942.53;5036870;28;20308;-67
2024/01/28 04:40:12;;;;;;;2.53;2.20;;;0.80;99.90;;;0.47;100.00;102943.75;5040529;28;20200;-68
2024/01/28 04:42:41;;;;;;;1.98;1.55;;;0.90;99.90;;;0.37;100.00;102951.41;5032356;28;20721;-67
2024/01/28 04:45:11;;;;;;;1.23;1.00;;;0.80;99.90;;;0.57;100.00;102946.75;5045706;28;20193;-67
2024/01/28 04:47:42;;;;;;;2.20;2.00;;;0.90;99.90;;;0.58;100.00;102951.13;5038858;28;20629;-66
2024/01/28 04:50:11;;;;;;;16.17;1.73;;;1.00;99.90;;;0.53;100.00;102954.06;5035901;28;20215;-68
2024/01/28 04:52:40;;;;;;;2.25;2.05;;;0.90;99.90;;;0.74;100.00;102947.47;5037427;28;20490;-68
2024/01/28 04:55:09;;;;;;;1.38;1.27;;;1.10;99.90;;;0.83;100.00;102952.28;5036029;28;20278;-68
2024/01/28 04:57:38;;;;;;;2.05;1.17;;;1.20;99.90;;;0.81;100.00;102948.00;5035910;28;20209;-68
2024/01/28 05:00:10;;;;;;;2.58;1.67;;;1.10;99.90;;;0.67;100.00;102947.94;5036028;28;20652;-68
2024/01/28 05:02:41;;;;;;;2.80;1.77;;;1.10;99.90;;;0.56;100.00;102958.34;5044695;28;20691;-68
2024/01/28 05:05:09;;;;;;;18.42;1.50;;;1.00;99.90;;;0.65;100.00;102960.47;5037702;28;20197;-69
2024/01/28 05:07:41;;;;;;;5.25;2.33;;;1.00;99.90;;;0.67;100.00;102955.94;5038137;28;20209;-69
2024/01/28 05:10:12;;;;;;;7.60;1.90;;;1.10;99.90;;;0.55;100.00;102961.94;5036178;28;20209;-69
2024/01/28 05:12:41;;;;;;;2.00;1.58;;;1.00;99.90;;;0.49;100.00;102967.59;5035098;28;20190;-68
2024/01/28 05:15:14;;;;;;;1.50;1.40;;;1.00;99.90;;;0.48;100.00;102965.91;5036770;28;20223;-67
2024/01/28 05:17:45;;;;;;;2.92;2.65;;;0.90;99.90;;;0.45;100.00;102966.94;5036069;28;20284;-69
2024/01/28 05:20:14;;;;;;;2.85;2.42;;;0.90;99.90;;;0.46;100.00;102960.66;5036379;28;20189;-68
2024/01/28 05:22:44;;;;;;;21.85;1.75;;;0.90;99.90;;;0.39;100.00;102968.13;5040186;28;20186;-69
2024/01/28 05:25:13;;;;;;;1.42;1.25;;;0.90;99.90;;;0.35;100.00;102971.91;5034149;28;20659;-69
2024/01/28 05:27:42;;;;;;;3.97;2.58;;;0.80;99.90;;;0.48;100.00;102981.91;5037048;28;20212;-69
2024/01/28 05:30:12;;;;;;;4.35;0.90;;;0.90;99.90;;;0.49;100.00;102981.78;5033423;28;20212;-68
2024/01/28 05:32:43;;;;;;;1.30;1.13;;;0.90;99.90;;;0.43;100.00;102979.50;5039680;28;20189;-68
2024/01/28 05:35:11;;;;;;;7.07;2.58;;;0.90;99.90;;;0.44;100.00;102976.72;5032160;28;20197;-70
2024/01/28 05:37:47;;;;;;;4.00;2.40;;;0.90;99.90;;;0.31;100.00;102986.34;5034056;28;20655;-70
2024/01/28 05:40:17;;;;;;;5.18;1.50;;;0.80;99.90;;;0.58;100.00;102988.44;5037181;28;20189;-69
2024/01/28 05:42:46;;;;;;;6.97;1.77;;;0.90;99.90;;;0.48;100.00;102988.09;5035953;28;20208;-66
2024/01/28 05:45:15;;;;;;;2.65;1.88;;;0.90;99.90;;;0.55;100.00;102996.56;5034784;28;20194;-69
2024/01/28 05:47:45;;;;;;;3.05;1.85;;;0.90;99.90;;;0.64;100.00;102998.72;5038252;28;20213;-70
2024/01/28 05:50:14;;;;;;;1.83;1.73;;;1.00;99.90;;;0.49;100.00;102989.78;5037663;28;20208;-69
2024/01/28 05:52:43;;;;;;;0.80;0.50;;;0.90;99.90;;;0.50;100.00;102996.84;5031277;28;20217;-68
2024/01/28 05:55:12;;;;;;;3.83;0.75;;;0.90;99.90;;;0.48;100.00;102992.56;5040635;28;20196;-69
2024/01/28 05:57:40;;;;;;;1.60;0.70;;;0.80;99.90;;;0.32;100.00;102993.41;5037836;28;20209;-68
2024/01/28 06:00:11;;;;;;;2.00;1.88;;;0.80;99.90;;;0.38;100.00;102995.75;5048154;28;20251;-68
2024/01/28 06:02:40;;;;;;;1.55;1.15;;;0.80;99.90;;;0.32;100.00;102998.72;5036894;28;20185;-69
2024/01/28 06:05:10;;;;;;;2.85;2.65;;;0.80;99.90;;;0.50;100.00;102996.84;5036691;28;20203;-69
2024/01/28 06:07:39;;;;;;;1.35;1.25;;;0.80;99.90;;;0.41;100.00;102997.34;5039584;28;20594;-68
2024/01/28 06:10:09;;;;;;;0.90;0.70;;;0.80;99.90;;;0.31;100.00;102996.16;5037636;28;20563;-69
2024/01/28 06:12:37;;;;;;;1.20;1.10;;;0.70;99.90;;;0.24;100.00;102995.63;5039375;28;20213;-70
2024/01/28 06:15:08;;;;;;;1.67;0.75;;;0.70;99.90;;;0.27;100.00;102995.47;5035337;28;20563;-67
2024/01/28 06:17:37;;;;;;;16.52;3.55;;;0.70;99.90;;;0.36;100.00;102996.75;5034288;28;20630;-68
2024/01/28 06:20:08;;;;;;;1.40;1.30;;;0.70;99.90;;;0.18;100.00;102990.66;5034085;28;20193;-66
2024/01/28 06:22:38;;;;;;;1.00;0.90;;;0.70;99.90;;;0.14;100.00;102989.09;5032726;28;20193;-67
2024/01/28 06:25:09;;;;;;;3.05;2.85;;;0.60;99.90;;;0.15;100.00;102985.47;5033609;28;20240;-66
2024/01/28 06:27:38;;;;;;;6.88;1.40;;;0.60;99.90;;;0.11;100.00;102989.25;5033641;28;20224;-68
2024/01/28 06:30:08;;;;;;;1.30;1.20;;;0.60;99.90;;;0.10;100.00;102984.88;5048740;28;20218;-65
2024/01/28 06:32:37;;;;;;;3.95;1.75;;;0.50;99.90;;;0.11;100.00;102983.06;5033931;28;20284;-68
2024/01/28 06:35:07;;;;;;;6.28;2.00;;;0.50;99.90;;;0.27;100.00;102984.81;5035960;28;20207;-68
2024/01/28 06:37:38;;;;;;;2.15;1.33;;;0.60;99.90;;;0.26;100.00;102983.09;5030337;28;20576;-68
2024/01/28 06:40:09;;;;;;;2.53;1.15;;;0.60;99.90;;;0.19;100.00;102987.06;5033006;28;20603;-69
2024/01/28 06:42:37;;;;;;;1.60;1.42;;;0.60;99.90;;;0.17;100.00;102988.91;5031457;28;20212;-68
2024/01/28 06:45:08;;;;;;;1.60;1.50;;;0.60;99.90;;;0.21;100.00;102985.13;5032957;28;20201;-69
2024/01/28 06:47:40;;;;;;;0.80;0.60;;;0.60;99.90;;;0.18;100.00;102980.00;5028861;28;20239;-69
2024/01/28 06:50:10;;;;;;;1.27;0.98;;;0.60;99.90;;;0.20;100.00;102988.75;5034113;28;20232;-69
2024/01/28 06:52:40;;;;;;;1.58;1.30;;;0.60;99.90;;;0.21;100.00;102985.13;5033069;28;20201;-68
2024/01/28 06:55:10;;;;;;;3.95;1.08;;;0.60;99.90;;;0.11;100.00;102983.94;5031851;28;20576;-68
2024/01/28 06:57:39;;;;;;;2.65;1.02;;;0.50;99.90;;;0.10;100.00;102979.53;5033061;28;20221;-69
2024/01/28 07:00:10;;;;;;;0.82;0.55;;;0.50;99.90;;;0.14;100.00;102981.13;5033276;28;20556;-69
2024/01/28 07:02:39;;;;;;;0.80;0.57;;;0.50;99.90;;;0.35;100.00;102985.22;5033505;28;20251;-69
2024/01/28 07:05:09;;;;;;;2.80;1.05;;;0.60;99.90;;;0.35;100.00;102982.56;5032566;28;20199;-68
2024/01/28 07:07:39;;;;;;;2.90;2.70;;;0.70;99.90;;;0.41;100.00;102987.56;5042327;28;20302;-68
2024/01/28 07:10:09;;;;;;;1.38;1.05;;;0.70;99.90;;;0.38;100.00;102982.41;5029262;28;20216;-68
2024/01/28 07:12:42;;;;;;;1.33;0.95;;;0.70;99.90;;;0.48;100.00;102992.56;5031934;28;20280;-70
2024/01/28 07:15:13;;;;;;;2.55;2.35;;;0.70;99.90;;;0.44;100.00;102987.38;5031830;28;20552;-68
2024/01/28 07:17:42;;;;;;;1.38;1.10;;;0.70;99.90;;;0.47;100.00;102988.16;5032810;28;20221;-69
2024/01/28 07:20:11;;;;;;;1.33;1.23;;;0.80;99.90;;;0.40;100.00;102991.16;5032774;28;20205;-64
2024/01/28 07:22:41;;;;;;;0.82;0.65;;;0.70;99.90;;;0.30;100.00;102995.28;5040694;28;20592;-65
2024/01/28 07:25:11;;;;;;;0.80;0.60;;;0.70;99.90;;;0.37;100.00;102988.69;5034705;28;20189;-66
2024/01/28 07:27:40;;;;;;;2.40;1.83;;;0.80;99.90;;;0.37;100.00;102990.50;5031757;28;20220;-64
2024/01/28 07:30:09;;;;;;;1.38;1.27;;;0.70;99.90;;;0.49;100.00;102980.94;5031776;28;20567;-65
2024/01/28 07:32:38;;;;;;;1.42;1.33;;;0.80;99.90;;;0.63;100.00;102981.03;5032102;28;20197;-66
2024/01/28 07:35:07;;;;;;;6.13;1.10;;;0.90;99.90;;;0.54;100.00;102981.53;5032252;28;20212;-66
2024/01/28 07:37:36;;;;;;;4.20;2.30;;;0.90;99.90;;;0.62;100.00;102979.31;5032520;28;20218;-64
2024/01/28 07:40:08;;;;;;;1.85;1.42;;;0.90;99.90;;;0.64;100.00;102972.06;5031884;28;20194;-65
2024/01/28 07:42:37;;;;;;;3.22;1.13;;;0.90;99.90;;;0.67;100.00;102982.56;5032401;28;20247;-65
2024/01/28 07:45:07;;;;;;;1.83;1.08;;;1.00;99.90;;;0.73;100.00;102992.88;5032302;28;20200;-66
2024/01/28 07:47:36;;;;;;;0.80;0.50;;;1.00;99.90;;;0.74;100.00;102989.25;5030889;28;20603;-65
2024/01/28 07:50:08;;;;;;;2.78;1.83;;;1.00;99.90;;;0.84;100.00;102980.66;5031579;28;20213;-65
2024/01/28 07:52:38;;;;;;;4.28;1.33;;;1.10;99.90;;;1.01;100.00;102990.34;5036059;28;20280;-65
2024/01/28 07:55:08;;;;;;;0.90;0.70;;;1.20;99.90;;;1.03;100.00;102996.44;5032922;28;20197;-65
2024/01/28 07:57:37;;;;;;;2.33;1.70;;;1.20;99.90;;;1.20;100.00;103004.31;5035900;28;20217;-62
2024/01/28 08:00:09;;;;;;;1.20;1.10;;;1.30;99.90;;;1.30;100.00;102994.81;5044678;28;20313;-66
2024/01/28 08:02:41;;;;;;;1.30;1.20;;;1.50;99.90;;;1.35;100.00;102991.03;5036267;28;20184;-65
2024/01/28 08:05:10;;;;;;;4.00;1.70;;;1.50;99.90;;;1.44;100.00;102988.66;5047969;28;20305;-63
2024/01/28 08:07:40;;;;;;;59.55;3.70;;;1.60;99.90;;;1.47;100.00;103000.94;5035892;28;20304;-65
2024/01/28 08:10:11;;;;;;;1.63;1.52;;;1.70;99.90;;;1.51;100.00;103002.47;5038795;28;20194;-65
2024/01/28 08:12:41;;;;;;;2.03;1.55;;;1.70;99.90;;;1.60;100.00;103004.59;5035962;28;20185;-65
2024/01/28 08:15:10;;;;;;;2.28;2.17;;;1.70;99.90;;;1.73;100.00;103002.91;5036815;28;20185;-60
2024/01/28 08:17:39;;;;;;;1.15;1.05;;;1.90;99.90;;;1.98;100.00;103007.59;5036487;28;20296;-64
2024/01/28 08:20:09;;;;;;;2.50;2.30;;;2.00;94.30;;;1.97;100.00;103000.53;5028838;28;20201;-61
2024/01/28 08:22:39;;;;;;;2.25;0.98;;;2.10;1.00;;;1.95;100.00;102995.28;5040993;28;20204;-63
2024/01/28 08:25:11;;;;;;;3.45;2.03;;;2.10;1.00;;;2.28;100.00;102983.41;5043458;28;20197;-64
2024/01/28 08:27:40;;;;;;;2.10;2.00;;;2.30;1.00;;;2.30;100.00;102987.72;5046292;28;20228;-65
2024/01/28 08:30:11;;;;;;;1.30;1.20;;;2.40;1.00;;;2.38;100.00;102985.41;5039455;28;20203;-65
2024/01/28 08:32:40;;;;;;;2.28;1.77;;;2.40;1.00;;;2.46;100.00;102990.28;5036737;28;20193;-67
2024/01/28 08:35:09;;;;;;;1.55;1.45;;;2.50;1.00;;;2.55;100.00;102993.22;5039253;28;20239;-63
2024/01/28 08:37:37;;;;;;;1.83;1.73;;;2.60;99.90;;;2.54;100.00;102996.84;5039526;28;20331;-65
2024/01/28 08:40:10;;;;;;;3.75;1.95;;;2.60;99.90;;;2.70;100.00;102999.38;5034989;28;20201;-65
2024/01/28 08:42:40;;;;;;;2.75;1.10;;;2.70;99.90;;;2.82;100.00;103000.38;5035061;28;20201;-65
2024/01/28 08:45:10;;;;;;;2.38;1.85;;;2.80;1.00;;;2.76;100.00;103004.31;5036786;28;20193;-65
2024/01/28 08:47:40;;;;;;;1.15;1.05;;;2.80;99.90;;;2.75;100.00;103007.09;5028927;28;20240;-65
2024/01/28 08:50:09;;;;;;;1.25;1.15;;;2.80;99.90;;;2.96;100.00;103009.19;5035659;28;20659;-67
2024/01/28 08:52:38;;;;;;;1.45;1.35;;;3.00;99.90;;;2.97;100.00;103008.25;5034788;28;20236;-66
2024/01/28 08:55:07;;;;;;;2.53;2.33;;;3.00;1.00;;;3.04;100.00;103020.28;5035292;28;20283;-65
2024/01/28 08:57:36;;;;;;;1.00;0.70;;;3.10;1.00;;;3.04;100.00;103014.91;5035135;28;20213;-63
2024/01/28 09:00:12;;;;;;;1.13;1.02;;;3.10;1.00;;;3.18;100.00;103007.78;5037227;28;20197;-64
2024/01/28 09:02:41;;;;;;;2.10;1.40;;;3.20;1.00;;;3.15;100.00;103005.31;5033657;28;20236;-65
2024/01/28 09:05:10;;;;;;;2.60;2.40;;;3.20;1.00;;;3.28;100.00;102993.69;5035607;28;20194;-66
2024/01/28 09:07:40;;;;;;;1.45;1.35;;;3.20;1.00;;;3.43;100.00;102987.28;5035112;28;20725;-66
2024/01/28 09:10:09;;;;;;;3.80;1.73;;;3.40;99.90;;;3.60;99.59;102978.06;5027881;28;20194;-66
2024/01/28 09:12:38;;;;;;;1.67;1.58;;;3.60;99.90;;;3.67;98.80;102986.56;5034639;28;20233;-65
2024/01/28 09:15:09;;;;;;;1.95;1.80;;;3.60;53.50;;;3.90;97.57;102997.38;5033251;28;20198;-64
2024/01/28 09:17:38;;;;;;;1.48;1.38;;;3.80;99.90;;;3.91;96.04;103004.44;5028475;28;20361;-65
2024/01/28 09:20:08;;;;;;;2.28;1.60;;;3.90;99.90;;;3.93;96.46;103009.69;5035967;28;20189;-64
2024/01/28 09:22:38;;;;;;;2.78;2.58;;;4.00;99.90;;;3.87;95.98;102997.56;5035347;28;20178;-64
2024/01/28 09:25:08;;;;;;;1.15;0.98;;;3.90;99.90;;;4.03;96.78;103001.84;5034963;28;20283;-64
2024/01/28 09:27:37;;;;;;;1.45;0.95;;;4.00;99.90;;;4.06;96.16;103007.88;5035375;28;20242;-65
2024/01/28 09:30:07;;;;;;;1.77;1.60;;;4.10;99.90;;;4.08;95.79;103010.41;5040399;28;20282;-66
2024/01/28 09:32:37;;;;;;;5.15;2.67;;;4.10;99.90;;;4.22;95.47;103012.97;5034786;28;20206;-63
2024/01/28 09:35:06;;;;;;;0.85;0.65;;;4.20;99.90;;;4.46;93.56;103018.41;5038438;28;20542;-64
2024/01/28 09:37:35;;;;;;;0.95;0.85;;;4.40;99.90;;;4.45;91.86;103019.38;5036141;28;20613;-64
2024/01/28 09:40:05;;;;;;;2.22;2.03;;;4.40;99.90;;;4.36;91.97;103029.78;5035226;28;20197;-66
2024/01/28 09:42:44;;;;;;;1.70;1.60;;;4.40;99.90;;;4.56;92.07;103028.34;5034819;28;20594;-65
2024/01/28 09:45:13;;;;;;;3.17;2.40;;;4.50;99.90;;;4.81;91.20;103033.63;5033517;28;20200;-65
2024/01/28 09:47:45;;;;;;;14.40;1.50;;;4.70;99.90;;;4.84;89.19;103023.66;5033242;28;20245;-65
2024/01/28 09:50:15;;;;;;;2.38;1.80;;;4.80;99.90;;;4.84;89.19;103008.44;5029503;28;20255;-64
2024/01/28 09:52:43;;;;;;;3.10;1.65;;;4.90;99.90;;;4.95;88.78;103007.59;5049395;28;20270;-66
2024/01/28 09:55:13;;;;;;;2.17;1.98;;;5.00;99.90;;;4.85;88.89;103009.25;5040870;28;20194;-66
2024/01/28 09:57:42;;;;;;;1.15;1.05;;;4.90;99.90;;;4.96;88.56;102996.75;5033881;28;20645;-65
2024/01/28 10:00:14;;;;;;;3.03;2.78;;;5.00;99.90;;;5.06;87.05;102996.94;5031106;28;20603;-64
2024/01/28 10:02:44;;;;;;;3.15;1.77;;;5.10;99.90;;;5.11;87.51;103002.81;5033091;28;20183;-63
2024/01/28 10:05:14;;;;;;;1.40;1.17;;;5.10;99.90;;;5.10;87.47;103003.78;5032267;28;20196;-64
2024/01/28 10:07:47;;;;;;;1.63;1.48;;;5.10;99.90;;;5.23;86.73;103001.88;5033203;28;20261;-65
2024/01/28 10:10:17;;;;;;;1.58;1.48;;;5.10;99.90;;;5.37;86.38;103004.38;5028996;28;20658;-64
2024/01/28 10:12:49;;;;;;;1.50;1.40;;;5.30;99.90;;;5.52;84.82;103011.25;5032438;28;20289;-64
2024/01/28 10:15:20;;;;;;;3.28;1.10;;;5.40;99.90;;;5.51;85.12;103006.00;5033886;28;20255;-65
2024/01/28 10:17:51;;;;;;;7.68;2.67;;;5.50;99.90;;;5.59;85.01;103000.91;5037729;28;20215;-65
2024/01/28 10:20:22;;;;;;;3.33;1.38;;;5.50;99.90;;;5.57;84.17;103003.69;5033362;28;20643;-64
2024/01/28 10:22:53;;;;;;;1.48;1.35;;;5.60;99.90;;;5.66;83.70;103000.28;5033859;28;20189;-64
2024/01/28 10:25:22;;;;;;;2.53;1.50;;;5.60;99.90;;;5.65;84.05;103000.44;5031224;28;20537;-65
2024/01/28 10:28:18;;;;;;;5.20;2.78;;;5.60;99.90;;;5.91;83.65;102998.41;5033599;28;20310;-65
2024/01/28 10:30:50;;;;;;;1.30;1.08;;;5.80;99.90;;;6.10;82.63;102988.75;5035389;28;20200;-64
2024/01/28 10:33:21;;;;;;;2.75;1.48;;;6.00;99.90;;;6.02;82.40;102984.97;5032863;28;20208;-64
2024/01/28 10:35:49;;;;;;;1.50;1.40;;;6.00;99.90;;;6.07;81.87;102977.41;5033762;28;20572;-64
2024/01/28 10:38:21;;;;;;;2.55;1.83;;;6.00;99.90;;;6.18;81.60;102973.88;5031606;28;20228;-63